createdAt,value
2018-09-15T00:00:36.487Z,18.23
2018-09-15T00:01:36.414Z,18.35
2018-09-15T00:02:36.341Z,18.28
2018-09-15T00:03:36.271Z,18.22
2018-09-15T00:04:36.200Z,18.34
2018-09-15T00:05:36.115Z,18.38
2018-09-15T00:06:36.041Z,18.31
2018-09-15T00:07:35.968Z,18.25
2018-09-15T00:08:35.892Z,18.31
2018-09-15T00:09:35.820Z,18.28
2018-09-15T00:10:35.750Z,18.35
2018-09-15T00:11:35.671Z,18.33
2018-09-15T00:12:35.601Z,18.37
2018-09-15T00:13:35.526Z,18.31
2018-09-15T00:14:35.447Z,18.31
2018-09-15T00:15:35.374Z,18.26
2018-09-15T00:16:35.297Z,18.29
2018-09-15T00:17:35.232Z,18.31
2018-09-15T00:18:35.149Z,18.35
2018-09-15T00:19:35.078Z,18.35
2018-09-15T00:20:35.004Z,18.31
2018-09-15T00:21:34.926Z,18.25
2018-09-15T00:22:34.856Z,18.35
2018-09-15T00:23:34.780Z,18.28
2018-09-15T00:24:34.700Z,18.33
2018-09-15T00:25:34.629Z,18.41
2018-09-15T00:26:34.556Z,18.28
2018-09-15T00:27:34.478Z,18.20
2018-09-15T00:28:34.406Z,18.29
2018-09-15T00:29:34.331Z,18.20
2018-09-15T00:30:34.255Z,18.25
2018-09-15T00:31:34.181Z,18.26
2018-09-15T00:32:34.106Z,18.29
2018-09-15T00:33:34.032Z,18.23
2018-09-15T00:34:33.957Z,18.25
2018-09-15T00:35:33.886Z,18.29
2018-09-15T00:36:33.808Z,18.23
2018-09-15T00:37:33.737Z,18.25
2018-09-15T00:38:33.662Z,18.26
2018-09-15T00:39:33.584Z,18.25
2018-09-15T00:40:33.512Z,18.25
2018-09-15T00:41:33.435Z,18.23
2018-09-15T00:42:33.362Z,18.31
2018-09-15T00:43:33.296Z,18.23
2018-09-15T00:44:33.210Z,18.29
2018-09-15T00:45:33.155Z,18.28
2018-09-15T00:46:33.061Z,18.28
2018-09-15T00:47:32.989Z,18.22
2018-09-15T00:48:32.914Z,18.23
2018-09-15T00:49:32.840Z,18.29
2018-09-15T00:50:32.768Z,18.26
2018-09-15T00:51:32.691Z,18.31
2018-09-15T00:52:32.613Z,18.23
2018-09-15T00:53:32.540Z,18.28
2018-09-15T00:54:32.465Z,18.25
2018-09-15T00:55:32.392Z,18.26
2018-09-15T00:56:32.318Z,18.25
2018-09-15T00:57:32.242Z,18.26
2018-09-15T00:58:32.168Z,18.23
2018-09-15T00:59:32.094Z,18.26
2018-09-15T01:00:32.022Z,18.28
2018-09-15T01:01:31.948Z,18.19
2018-09-15T01:02:31.869Z,18.23
2018-09-15T01:03:31.795Z,18.18
2018-09-15T01:04:31.718Z,18.15
2018-09-15T01:05:31.654Z,18.16
2018-09-15T01:06:31.573Z,18.18
2018-09-15T01:07:31.499Z,18.10
2018-09-15T01:08:31.426Z,18.15
2018-09-15T01:09:31.350Z,18.18
2018-09-15T01:10:31.275Z,18.22
2018-09-15T01:11:31.206Z,18.13
2018-09-15T01:12:31.129Z,18.08
2018-09-15T01:13:31.059Z,18.16
2018-09-15T01:14:31.006Z,18.20
2018-09-15T01:15:30.900Z,18.07
2018-09-15T01:16:30.828Z,18.13
2018-09-15T01:17:30.763Z,18.15
2018-09-15T01:18:30.679Z,18.11
2018-09-15T01:19:30.602Z,18.19
2018-09-15T01:20:30.530Z,18.11
2018-09-15T01:21:30.457Z,18.18
2018-09-15T01:22:30.379Z,18.13
2018-09-15T01:23:30.308Z,18.16
2018-09-15T01:24:30.230Z,18.18
2018-09-15T01:25:30.156Z,18.33
2018-09-15T01:26:30.081Z,18.28
2018-09-15T01:27:30.009Z,18.20
2018-09-15T01:28:29.931Z,18.28
2018-09-15T01:29:29.857Z,18.25
2018-09-15T01:30:29.817Z,18.25
2018-09-15T01:31:29.710Z,18.26
2018-09-15T01:32:29.632Z,18.20
2018-09-15T01:33:29.558Z,18.22
2018-09-15T01:34:29.486Z,18.22
2018-09-15T01:35:29.413Z,18.34
2018-09-15T01:36:29.338Z,18.28
2018-09-15T01:37:29.260Z,18.25
2018-09-15T01:38:29.187Z,18.28
2018-09-15T01:39:29.119Z,18.28
2018-09-15T01:40:29.037Z,18.31
2018-09-15T01:41:28.965Z,18.25
2018-09-15T01:42:28.886Z,18.25
2018-09-15T01:43:28.816Z,18.25
2018-09-15T01:44:28.744Z,18.28
2018-09-15T01:45:28.664Z,18.25
2018-09-15T01:46:28.589Z,18.25
2018-09-15T01:47:28.515Z,18.25
2018-09-15T01:48:28.441Z,18.20
2018-09-15T01:49:28.364Z,18.23
2018-09-15T01:50:28.290Z,18.31
2018-09-15T01:51:28.216Z,18.26
2018-09-15T01:52:28.141Z,18.26
2018-09-15T01:53:28.066Z,18.25
2018-09-15T01:54:27.993Z,18.22
2018-09-15T01:55:27.919Z,18.22
2018-09-15T01:56:27.851Z,18.22
2018-09-15T01:57:27.809Z,18.22
2018-09-15T01:58:27.693Z,18.16
2018-09-15T01:59:27.623Z,18.16
2018-09-15T02:00:27.549Z,18.23
2018-09-15T02:01:27.476Z,18.26
2018-09-15T02:02:27.398Z,18.16
2018-09-15T02:03:27.322Z,18.18
2018-09-15T02:04:27.248Z,18.22
2018-09-15T02:05:27.171Z,18.15
2018-09-15T02:06:27.099Z,18.11
2018-09-15T02:07:27.024Z,18.20
2018-09-15T02:08:26.948Z,18.10
2018-09-15T02:09:26.878Z,18.28
2018-09-15T02:10:26.800Z,18.18
2018-09-15T02:11:26.728Z,18.19
2018-09-15T02:12:26.653Z,18.11
2018-09-15T02:13:26.576Z,18.19
2018-09-15T02:14:26.503Z,18.18
2018-09-15T02:15:26.471Z,18.13
2018-09-15T02:16:26.349Z,18.10
2018-09-15T02:17:26.276Z,18.13
2018-09-15T02:18:26.205Z,18.20
2018-09-15T02:19:26.132Z,18.11
2018-09-15T02:20:26.053Z,18.20
2018-09-15T02:21:25.978Z,18.18
2018-09-15T02:22:25.937Z,18.16
2018-09-15T02:23:25.832Z,18.15
2018-09-15T02:24:25.759Z,18.15
2018-09-15T02:25:25.682Z,18.15
2018-09-15T02:26:25.605Z,18.16
2018-09-15T02:27:25.532Z,18.16
2018-09-15T02:28:25.458Z,18.11
2018-09-15T02:29:25.382Z,18.08
2018-09-15T02:30:25.309Z,18.23
2018-09-15T02:31:25.231Z,18.18
2018-09-15T02:32:25.155Z,18.13
2018-09-15T02:33:25.082Z,18.18
2018-09-15T02:34:25.009Z,18.13
2018-09-15T02:35:24.936Z,18.11
2018-09-15T02:36:24.857Z,18.11
2018-09-15T02:37:24.786Z,18.16
2018-09-15T02:38:24.712Z,18.18
2018-09-15T02:39:24.636Z,18.15
2018-09-15T02:40:24.560Z,18.07
2018-09-15T02:41:24.486Z,18.15
2018-09-15T02:42:24.411Z,18.16
2018-09-15T02:43:24.338Z,18.10
2018-09-15T02:44:24.262Z,18.13
2018-09-15T02:45:24.191Z,18.20
2018-09-15T02:46:24.116Z,18.15
2018-09-15T02:47:24.038Z,18.18
2018-09-15T02:48:23.964Z,18.10
2018-09-15T02:49:23.889Z,18.10
2018-09-15T02:50:23.818Z,18.10
2018-09-15T02:51:23.741Z,18.04
2018-09-15T02:52:23.669Z,18.07
2018-09-15T02:53:23.590Z,18.03
2018-09-15T02:54:23.517Z,18.08
2018-09-15T02:55:23.443Z,18.18
2018-09-15T02:56:23.367Z,18.01
2018-09-15T02:57:23.292Z,18.03
2018-09-15T02:58:23.220Z,18.00
2018-09-15T02:59:23.142Z,18.05
2018-09-15T03:00:23.070Z,18.05
2018-09-15T03:01:22.995Z,18.10
2018-09-15T03:02:22.921Z,18.05
2018-09-15T03:03:22.848Z,18.03
2018-09-15T03:04:22.770Z,18.05
2018-09-15T03:05:22.692Z,18.07
2018-09-15T03:06:22.620Z,18.05
2018-09-15T03:07:22.545Z,18.03
2018-09-15T03:08:22.469Z,18.08
2018-09-15T03:09:22.397Z,18.04
2018-09-15T03:10:22.320Z,18.05
2018-09-15T03:11:22.253Z,18.04
2018-09-15T03:12:22.173Z,18.00
2018-09-15T03:13:22.100Z,17.98
2018-09-15T03:14:22.024Z,17.87
2018-09-15T03:15:21.954Z,17.98
2018-09-15T03:16:21.872Z,18.00
2018-09-15T03:17:21.803Z,17.98
2018-09-15T03:18:21.723Z,18.01
2018-09-15T03:19:21.649Z,18.01
2018-09-15T03:20:21.576Z,18.05
2018-09-15T03:21:21.502Z,18.04
2018-09-15T03:22:21.425Z,18.07
2018-09-15T03:23:21.350Z,17.95
2018-09-15T03:24:21.280Z,18.04
2018-09-15T03:25:21.200Z,17.98
2018-09-15T03:26:21.126Z,17.98
2018-09-15T03:27:21.069Z,18.00
2018-09-15T03:28:20.975Z,17.90
2018-09-15T03:29:20.902Z,18.00
2018-09-15T03:30:20.830Z,18.03
2018-09-15T03:31:20.752Z,18.00
2018-09-15T03:32:20.678Z,18.01
2018-09-15T03:33:20.602Z,18.03
2018-09-15T03:34:20.528Z,17.89
2018-09-15T03:35:20.455Z,17.95
2018-09-15T03:36:20.385Z,18.04
2018-09-15T03:37:20.304Z,18.00
2018-09-15T03:38:20.240Z,18.08
2018-09-15T03:39:20.158Z,17.94
2018-09-15T03:40:20.082Z,18.08
2018-09-15T03:41:20.065Z,18.03
2018-09-15T03:42:19.929Z,18.03
2018-09-15T03:43:19.854Z,17.95
2018-09-15T03:44:19.783Z,17.98
2018-09-15T03:45:19.706Z,17.98
2018-09-15T03:46:19.629Z,17.94
2018-09-15T03:47:19.554Z,17.94
2018-09-15T03:48:19.479Z,17.92
2018-09-15T03:49:19.408Z,17.89
2018-09-15T03:50:19.333Z,17.87
2018-09-15T03:51:19.263Z,17.86
2018-09-15T03:52:19.180Z,17.95
2018-09-15T03:53:19.107Z,17.87
2018-09-15T03:54:19.033Z,17.89
2018-09-15T03:55:18.970Z,17.92
2018-09-15T03:56:18.883Z,17.94
2018-09-15T03:57:18.806Z,17.97
2018-09-15T03:58:18.741Z,17.89
2018-09-15T03:59:18.658Z,17.90
2018-09-15T04:00:18.585Z,17.89
2018-09-15T04:01:18.508Z,17.83
2018-09-15T04:02:18.434Z,17.86
2018-09-15T04:03:18.359Z,17.83
2018-09-15T04:04:18.283Z,17.87
2018-09-15T04:05:18.213Z,17.83
2018-09-15T04:06:18.133Z,17.85
2018-09-15T04:07:18.062Z,17.80
2018-09-15T04:08:17.985Z,17.89
2018-09-15T04:09:17.909Z,17.89
2018-09-15T04:10:17.838Z,17.89
2018-09-15T04:11:17.769Z,17.92
2018-09-15T04:12:17.685Z,17.92
2018-09-15T04:13:17.614Z,17.87
2018-09-15T04:14:17.537Z,17.95
2018-09-15T04:15:17.458Z,17.94
2018-09-15T04:16:17.386Z,17.90
2018-09-15T04:17:17.318Z,17.90
2018-09-15T04:18:17.235Z,17.87
2018-09-15T04:19:17.163Z,17.87
2018-09-15T04:20:17.090Z,17.92
2018-09-15T04:21:17.013Z,17.89
2018-09-15T04:22:16.937Z,17.92
2018-09-15T04:23:16.860Z,17.89
2018-09-15T04:24:16.784Z,17.92
2018-09-15T04:25:16.716Z,17.92
2018-09-15T04:26:16.638Z,17.86
2018-09-15T04:27:16.561Z,17.89
2018-09-15T04:28:16.494Z,17.78
2018-09-15T04:29:16.410Z,17.68
2018-09-15T04:30:16.336Z,17.74
2018-09-15T04:31:16.264Z,17.78
2018-09-15T04:32:16.187Z,17.67
2018-09-15T04:33:16.112Z,17.74
2018-09-15T04:34:16.036Z,17.76
2018-09-15T04:35:15.961Z,17.78
2018-09-15T04:36:15.889Z,17.82
2018-09-15T04:37:15.814Z,17.72
2018-09-15T04:38:15.736Z,17.72
2018-09-15T04:39:15.665Z,17.67
2018-09-15T04:40:15.588Z,17.78
2018-09-15T04:41:15.513Z,17.71
2018-09-15T04:42:15.438Z,17.71
2018-09-15T04:43:15.364Z,17.78
2018-09-15T04:44:15.287Z,17.82
2018-09-15T04:45:15.214Z,17.89
2018-09-15T04:46:15.141Z,17.78
2018-09-15T04:47:15.063Z,17.74
2018-09-15T04:48:14.989Z,17.76
2018-09-15T04:49:14.911Z,17.78
2018-09-15T04:50:14.838Z,17.87
2018-09-15T04:51:14.762Z,17.78
2018-09-15T04:52:14.686Z,17.78
2018-09-15T04:53:14.616Z,17.82
2018-09-15T04:54:14.537Z,17.82
2018-09-15T04:55:14.465Z,17.78
2018-09-15T04:56:14.387Z,17.80
2018-09-15T04:57:14.313Z,17.82
2018-09-15T04:58:14.236Z,17.72
2018-09-15T04:59:14.166Z,17.82
2018-09-15T05:00:14.088Z,17.72
2018-09-15T05:01:14.014Z,17.82
2018-09-15T05:02:13.942Z,17.83
2018-09-15T05:03:13.873Z,17.79
2018-09-15T05:04:13.788Z,17.79
2018-09-15T05:05:13.714Z,17.79
2018-09-15T05:06:13.638Z,17.79
2018-09-15T05:07:13.563Z,17.85
2018-09-15T05:08:13.491Z,17.86
2018-09-15T05:09:13.413Z,17.74
2018-09-15T05:10:13.343Z,17.78
2018-09-15T05:11:13.264Z,17.79
2018-09-15T05:12:13.191Z,17.87
2018-09-15T05:13:13.122Z,17.80
2018-09-15T05:14:13.040Z,17.71
2018-09-15T05:15:12.963Z,17.76
2018-09-15T05:16:12.889Z,17.78
2018-09-15T05:17:12.814Z,17.71
2018-09-15T05:18:12.745Z,17.68
2018-09-15T05:19:12.669Z,17.70
2018-09-15T05:20:12.592Z,17.74
2018-09-15T05:21:12.515Z,17.71
2018-09-15T05:22:12.441Z,17.78
2018-09-15T05:23:12.371Z,17.68
2018-09-15T05:24:12.290Z,17.76
2018-09-15T05:25:12.216Z,17.67
2018-09-15T05:26:12.139Z,17.71
2018-09-15T05:27:12.065Z,17.71
2018-09-15T05:28:11.993Z,17.71
2018-09-15T05:29:11.916Z,17.74
2018-09-15T05:30:11.843Z,17.74
2018-09-15T05:31:11.767Z,17.82
2018-09-15T05:32:11.692Z,17.80
2018-09-15T05:33:11.621Z,17.83
2018-09-15T05:34:11.542Z,17.79
2018-09-15T05:35:11.468Z,17.83
2018-09-15T05:36:11.394Z,17.85
2018-09-15T05:37:11.315Z,17.83
2018-09-15T05:38:11.242Z,17.80
2018-09-15T05:39:11.166Z,17.86
2018-09-15T05:40:11.090Z,17.82
2018-09-15T05:41:11.016Z,17.71
2018-09-15T05:42:10.941Z,17.71
2018-09-15T05:43:10.870Z,17.72
2018-09-15T05:44:10.793Z,17.82
2018-09-15T05:45:10.717Z,17.71
2018-09-15T05:46:10.645Z,17.71
2018-09-15T05:47:10.568Z,17.70
2018-09-15T05:48:10.495Z,17.82
2018-09-15T05:49:10.420Z,17.78
2018-09-15T05:50:10.347Z,17.79
2018-09-15T05:51:10.267Z,17.83
2018-09-15T05:52:10.191Z,17.85
2018-09-15T05:53:10.121Z,17.85
2018-09-15T05:54:10.047Z,17.80
2018-09-15T05:55:09.968Z,17.85
2018-09-15T05:56:09.978Z,17.95
2018-09-15T05:57:09.816Z,17.92
2018-09-15T05:58:09.749Z,17.89
2018-09-15T05:59:09.669Z,17.90
2018-09-15T06:00:09.593Z,17.89
2018-09-15T06:01:09.520Z,17.90
2018-09-15T06:02:09.445Z,17.89
2018-09-15T06:03:09.373Z,18.00
2018-09-15T06:04:09.293Z,17.92
2018-09-15T06:05:09.218Z,17.92
2018-09-15T06:06:09.150Z,17.90
2018-09-15T06:07:09.070Z,17.86
2018-09-15T06:08:08.997Z,17.90
2018-09-15T06:09:08.922Z,17.89
2018-09-15T06:10:08.850Z,17.95
2018-09-15T06:11:08.773Z,18.00
2018-09-15T06:12:08.695Z,17.97
2018-09-15T06:13:08.620Z,17.95
2018-09-15T06:14:08.547Z,17.95
2018-09-15T06:15:08.471Z,17.98
2018-09-15T06:16:08.397Z,17.87
2018-09-15T06:17:08.322Z,17.98
2018-09-15T06:18:08.251Z,18.01
2018-09-15T06:19:08.174Z,17.97
2018-09-15T06:20:08.099Z,17.94
2018-09-15T06:21:08.023Z,17.92
2018-09-15T06:22:07.947Z,17.83
2018-09-15T06:23:07.876Z,17.85
2018-09-15T06:24:07.800Z,17.78
2018-09-15T06:25:07.724Z,17.85
2018-09-15T06:26:07.652Z,17.78
2018-09-15T06:27:07.581Z,17.83
2018-09-15T06:28:07.498Z,17.85
2018-09-15T06:29:07.427Z,17.87
2018-09-15T06:30:07.352Z,17.83
2018-09-15T06:31:07.276Z,17.82
2018-09-15T06:32:07.202Z,17.82
2018-09-15T06:33:07.122Z,17.82
2018-09-15T06:34:07.052Z,17.83
2018-09-15T06:35:06.973Z,17.87
2018-09-15T06:36:06.901Z,17.98
2018-09-15T06:37:06.826Z,17.95
2018-09-15T06:38:06.754Z,17.97
2018-09-15T06:39:06.679Z,17.97
2018-09-15T06:40:06.599Z,17.97
2018-09-15T06:41:06.525Z,17.95
2018-09-15T06:42:06.451Z,17.98
2018-09-15T06:43:06.382Z,17.92
2018-09-15T06:44:06.303Z,17.89
2018-09-15T06:45:06.228Z,17.89
2018-09-15T06:46:06.152Z,17.86
2018-09-15T06:47:06.077Z,17.82
2018-09-15T06:48:06.002Z,17.82
2018-09-15T06:49:05.929Z,17.86
2018-09-15T06:50:05.852Z,17.83
2018-09-15T06:51:05.778Z,17.85
2018-09-15T06:52:05.711Z,17.76
2018-09-15T06:53:05.630Z,17.83
2018-09-15T06:54:05.558Z,17.86
2018-09-15T06:55:05.480Z,17.86
2018-09-15T06:56:05.402Z,17.97
2018-09-15T06:57:05.329Z,17.90
2018-09-15T06:58:05.257Z,17.90
2018-09-15T06:59:05.182Z,18.03
2018-09-15T07:00:05.105Z,17.89
2018-09-15T07:01:05.029Z,18.04
2018-09-15T07:02:04.957Z,18.04
2018-09-15T07:03:04.884Z,18.05
2018-09-15T07:04:04.806Z,18.13
2018-09-15T07:05:04.729Z,18.23
2018-09-15T07:06:04.658Z,18.28
2018-09-15T07:07:04.587Z,18.34
2018-09-15T07:08:04.510Z,18.34
2018-09-15T07:09:04.433Z,18.40
2018-09-15T07:10:04.362Z,18.34
2018-09-15T07:11:04.282Z,18.43
2018-09-15T07:12:04.220Z,18.47
2018-09-15T07:13:04.187Z,18.44
2018-09-15T07:14:04.059Z,18.55
2018-09-15T07:15:03.984Z,18.49
2018-09-15T07:16:03.909Z,18.53
2018-09-15T07:17:03.836Z,18.50
2018-09-15T07:18:03.760Z,18.55
2018-09-15T07:19:03.688Z,18.55
2018-09-15T07:20:03.673Z,18.63
2018-09-15T07:21:03.536Z,18.56
2018-09-15T07:22:03.464Z,18.65
2018-09-15T07:23:03.389Z,18.68
2018-09-15T07:24:03.315Z,18.66
2018-09-15T07:25:03.242Z,18.70
2018-09-15T07:26:03.207Z,18.66
2018-09-15T07:27:03.091Z,18.74
2018-09-15T07:28:03.017Z,18.84
2018-09-15T07:29:02.945Z,18.84
2018-09-15T07:30:02.870Z,18.78
2018-09-15T07:31:02.802Z,18.80
2018-09-15T07:32:02.724Z,18.75
2018-09-15T07:33:02.647Z,18.86
2018-09-15T07:34:02.574Z,18.83
2018-09-15T07:35:02.499Z,18.75
2018-09-15T07:36:02.427Z,18.83
2018-09-15T07:37:02.349Z,18.81
2018-09-15T07:38:02.279Z,18.88
2018-09-15T07:39:02.216Z,18.75
2018-09-15T07:40:02.129Z,18.90
2018-09-15T07:41:02.054Z,18.93
2018-09-15T07:42:01.987Z,18.89
2018-09-15T07:43:01.916Z,18.95
2018-09-15T07:44:01.836Z,18.90
2018-09-15T07:45:01.762Z,19.02
2018-09-15T07:46:01.684Z,19.08
2018-09-15T07:47:01.612Z,19.04
2018-09-15T07:48:01.537Z,19.09
2018-09-15T07:49:01.463Z,19.09
2018-09-15T07:50:01.463Z,19.08
2018-09-15T07:51:01.317Z,19.08
2018-09-15T07:52:01.241Z,19.19
2018-09-15T07:53:01.171Z,19.16
2018-09-15T07:54:01.095Z,19.24
2018-09-15T07:55:01.020Z,19.21
2018-09-15T07:56:00.946Z,19.22
2018-09-15T07:57:00.870Z,19.22
2018-09-15T07:58:00.965Z,19.26
2018-09-15T07:59:00.727Z,19.29
2018-09-15T08:00:00.658Z,19.26
2018-09-15T08:01:00.576Z,19.24
2018-09-15T08:02:00.561Z,19.29
2018-09-15T08:03:00.430Z,19.34
2018-09-15T08:04:00.355Z,19.41
2018-09-15T08:05:00.282Z,19.41
2018-09-15T08:06:00.210Z,19.45
2018-09-15T08:07:00.134Z,19.44
2018-09-15T08:08:00.061Z,19.39
2018-09-15T08:08:59.986Z,19.36
2018-09-15T08:09:59.914Z,19.40
2018-09-15T08:10:59.869Z,19.48
2018-09-15T08:11:59.766Z,19.39
2018-09-15T08:12:59.702Z,19.40
2018-09-15T08:13:59.620Z,19.49
2018-09-15T08:14:59.548Z,19.59
2018-09-15T08:15:59.473Z,19.62
2018-09-15T08:16:59.399Z,19.69
2018-09-15T08:17:59.330Z,19.69
2018-09-15T08:18:59.252Z,19.74
2018-09-15T08:19:59.178Z,19.71
2018-09-15T08:20:59.109Z,19.64
2018-09-15T08:21:59.031Z,19.79
2018-09-15T08:22:58.959Z,19.81
2018-09-15T08:23:58.883Z,19.76
2018-09-15T08:24:58.811Z,19.85
2018-09-15T08:25:58.738Z,19.91
2018-09-15T08:26:58.682Z,19.92
2018-09-15T08:27:58.591Z,19.95
2018-09-15T08:28:58.517Z,19.99
2018-09-15T08:29:58.446Z,20.10
2018-09-15T08:30:58.372Z,20.19
2018-09-15T08:31:58.322Z,20.13
2018-09-15T08:32:58.227Z,20.13
2018-09-15T08:33:58.153Z,20.16
2018-09-15T08:34:58.082Z,20.06
2018-09-15T08:35:58.005Z,20.14
2018-09-15T08:36:57.933Z,20.07
2018-09-15T08:37:57.862Z,20.06
2018-09-15T08:38:57.792Z,20.00
2018-09-15T08:39:57.713Z,20.02
2018-09-15T08:40:57.640Z,20.02
2018-09-15T08:41:57.566Z,20.04
2018-09-15T08:42:57.495Z,20.00
2018-09-15T08:43:57.420Z,20.06
2018-09-15T08:44:57.349Z,20.04
2018-09-15T08:45:57.272Z,20.10
2018-09-15T08:46:57.201Z,20.07
2018-09-15T08:47:57.132Z,20.13
2018-09-15T08:48:57.064Z,20.07
2018-09-15T08:49:56.982Z,20.14
2018-09-15T08:50:56.914Z,20.09
2018-09-15T08:51:56.836Z,20.02
2018-09-15T08:52:56.761Z,20.07
2018-09-15T08:53:56.700Z,20.04
2018-09-15T08:54:56.617Z,20.04
2018-09-15T08:55:56.544Z,20.09
2018-09-15T08:56:56.468Z,20.04
2018-09-15T08:57:56.399Z,20.13
2018-09-15T08:58:56.322Z,20.10
2018-09-15T08:59:56.250Z,20.14
2018-09-15T09:00:56.175Z,20.11
2018-09-15T09:01:56.106Z,20.11
2018-09-15T09:02:56.031Z,20.10
2018-09-15T09:03:55.966Z,20.09
2018-09-15T09:04:55.883Z,20.11
2018-09-15T09:05:55.811Z,20.11
2018-09-15T09:06:55.737Z,20.07
2018-09-15T09:07:55.662Z,20.09
2018-09-15T09:08:55.590Z,20.10
2018-09-15T09:09:55.519Z,20.14
2018-09-15T09:10:55.446Z,20.13
2018-09-15T09:11:55.372Z,20.21
2018-09-15T09:12:55.307Z,20.24
2018-09-15T09:13:55.224Z,20.34
2018-09-15T09:14:55.151Z,20.24
2018-09-15T09:15:55.077Z,20.34
2018-09-15T09:16:55.007Z,20.40
2018-09-15T09:17:54.932Z,20.31
2018-09-15T09:18:54.863Z,20.40
2018-09-15T09:19:54.851Z,20.34
2018-09-15T09:20:54.711Z,20.32
2018-09-15T09:21:54.640Z,20.39
2018-09-15T09:22:54.567Z,20.40
2018-09-15T09:23:54.493Z,20.31
2018-09-15T09:24:54.420Z,20.40
2018-09-15T09:25:54.391Z,20.37
2018-09-15T09:26:54.276Z,20.43
2018-09-15T09:27:54.199Z,20.51
2018-09-15T09:28:54.127Z,20.58
2018-09-15T09:29:54.058Z,20.62
2018-09-15T09:30:53.984Z,20.72
2018-09-15T09:31:53.911Z,20.75
2018-09-15T09:32:53.838Z,20.74
2018-09-15T09:33:53.780Z,20.74
2018-09-15T09:34:53.693Z,20.77
2018-09-15T09:35:53.617Z,20.78
2018-09-15T09:36:53.544Z,20.77
2018-09-15T09:37:53.472Z,20.81
2018-09-15T09:38:53.403Z,20.84
2018-09-15T09:39:53.325Z,20.92
2018-09-15T09:40:53.257Z,20.84
2018-09-15T09:41:53.179Z,21.00
2018-09-15T09:42:53.108Z,21.02
2018-09-15T09:43:53.045Z,21.06
2018-09-15T09:44:52.965Z,21.11
2018-09-15T09:45:52.889Z,21.12
2018-09-15T09:46:52.817Z,21.11
2018-09-15T09:47:52.822Z,21.22
2018-09-15T09:48:52.674Z,21.24
2018-09-15T09:49:52.598Z,21.45
2018-09-15T09:50:52.526Z,21.54
2018-09-15T09:51:52.455Z,21.62
2018-09-15T09:52:52.381Z,21.73
2018-09-15T09:53:52.309Z,21.69
2018-09-15T09:54:52.236Z,21.79
2018-09-15T09:55:52.164Z,21.79
2018-09-15T09:56:52.093Z,21.75
2018-09-15T09:57:52.019Z,21.76
2018-09-15T09:58:51.967Z,21.72
2018-09-15T09:59:51.876Z,21.67
2018-09-15T10:00:51.807Z,21.73
2018-09-15T10:01:51.734Z,21.76
2018-09-15T10:02:51.662Z,21.69
2018-09-15T10:03:51.589Z,21.70
2018-09-15T10:04:51.515Z,21.70
2018-09-15T10:05:51.446Z,21.64
2018-09-15T10:06:51.375Z,21.62
2018-09-15T10:07:51.306Z,21.62
2018-09-15T10:08:51.232Z,21.67
2018-09-15T10:09:51.158Z,21.73
2018-09-15T10:10:51.087Z,21.75
2018-09-15T10:11:51.014Z,21.83
2018-09-15T10:12:50.946Z,21.82
2018-09-15T10:13:50.873Z,21.72
2018-09-15T10:14:50.798Z,21.82
2018-09-15T10:15:50.785Z,21.77
2018-09-15T10:16:50.657Z,21.88
2018-09-15T10:17:50.589Z,21.95
2018-09-15T10:18:50.512Z,21.99
2018-09-15T10:19:50.441Z,22.04
2018-09-15T10:20:50.369Z,21.96
2018-09-15T10:21:50.298Z,22.00
2018-09-15T10:22:50.238Z,22.10
2018-09-15T10:23:50.162Z,22.11
2018-09-15T10:24:50.085Z,22.20
2018-09-15T10:25:50.014Z,22.15
2018-09-15T10:26:49.948Z,22.20
2018-09-15T10:27:49.873Z,22.22
2018-09-15T10:28:49.809Z,22.30
2018-09-15T10:29:49.728Z,22.39
2018-09-15T10:30:49.658Z,22.44
2018-09-15T10:31:49.586Z,22.45
2018-09-15T10:32:49.516Z,22.53
2018-09-15T10:33:49.443Z,22.63
2018-09-15T10:34:49.373Z,22.68
2018-09-15T10:35:49.302Z,22.75
2018-09-15T10:36:49.235Z,22.81
2018-09-15T10:37:49.158Z,22.59
2018-09-15T10:38:49.093Z,22.54
2018-09-15T10:39:49.017Z,22.55
2018-09-15T10:40:48.945Z,22.65
2018-09-15T10:41:48.882Z,22.62
2018-09-15T10:42:48.811Z,22.65
2018-09-15T10:43:48.733Z,22.62
2018-09-15T10:44:48.665Z,22.68
2018-09-15T10:45:48.649Z,22.60
2018-09-15T10:46:48.612Z,22.65
2018-09-15T10:47:48.453Z,22.60
2018-09-15T10:48:48.388Z,22.43
2018-09-15T10:49:48.309Z,22.36
2018-09-15T10:50:48.239Z,22.15
2018-09-15T10:51:48.168Z,22.07
2018-09-15T10:52:48.097Z,21.91
2018-09-15T10:53:48.028Z,21.76
2018-09-15T10:54:47.966Z,21.79
2018-09-15T10:55:47.885Z,21.79
2018-09-15T10:56:47.812Z,21.70
2018-09-15T10:57:47.741Z,21.73
2018-09-15T10:58:47.670Z,21.73
2018-09-15T10:59:47.600Z,21.77
2018-09-15T11:00:47.544Z,21.79
2018-09-15T11:01:47.458Z,21.96
2018-09-15T11:02:47.392Z,22.10
2018-09-15T11:03:47.316Z,22.08
2018-09-15T11:04:47.245Z,22.30
2018-09-15T11:05:47.227Z,22.38
2018-09-15T11:06:47.102Z,22.54
2018-09-15T11:07:47.030Z,22.63
2018-09-15T11:08:46.967Z,22.65
2018-09-15T11:09:46.892Z,22.69
2018-09-15T11:10:46.819Z,22.85
2018-09-15T11:11:46.744Z,22.85
2018-09-15T11:12:46.674Z,22.76
2018-09-15T11:13:46.677Z,22.81
2018-09-15T11:14:46.535Z,22.76
2018-09-15T11:15:46.462Z,22.84
2018-09-15T11:16:46.392Z,23.03
2018-09-15T11:17:46.320Z,23.03
2018-09-15T11:18:46.255Z,23.06
2018-09-15T11:19:46.180Z,23.12
2018-09-15T11:20:46.113Z,23.00
2018-09-15T11:21:46.040Z,23.08
2018-09-15T11:22:46.050Z,23.09
2018-09-15T11:23:45.899Z,23.23
2018-09-15T11:24:45.828Z,23.20
2018-09-15T11:25:45.760Z,23.10
2018-09-15T11:26:45.687Z,23.06
2018-09-15T11:27:45.617Z,23.08
2018-09-15T11:28:45.600Z,23.05
2018-09-15T11:29:45.481Z,23.05
2018-09-15T11:30:45.411Z,23.05
2018-09-15T11:31:45.337Z,22.98
2018-09-15T11:32:45.268Z,22.83
2018-09-15T11:33:45.200Z,22.78
2018-09-15T11:34:45.128Z,22.78
2018-09-15T11:35:45.060Z,22.75
2018-09-15T11:36:44.985Z,22.75
2018-09-15T11:37:44.917Z,22.57
2018-09-15T11:38:44.847Z,22.55
2018-09-15T11:39:44.776Z,22.55
2018-09-15T11:40:44.704Z,23.59
2018-09-15T11:41:44.634Z,24.66
2018-09-15T11:42:44.563Z,25.46
2018-09-15T11:43:44.575Z,26.25
2018-09-15T11:44:44.426Z,26.97
2018-09-15T11:45:44.358Z,27.63
2018-09-15T11:46:44.290Z,28.12
2018-09-15T11:47:44.230Z,28.66
2018-09-15T11:48:44.154Z,29.04
2018-09-15T11:49:44.092Z,28.86
2018-09-15T11:50:44.024Z,29.01
2018-09-15T11:51:43.959Z,29.38
2018-09-15T11:52:43.891Z,29.81
2018-09-15T11:53:43.855Z,30.28
2018-09-15T11:54:43.769Z,30.54
2018-09-15T11:55:43.700Z,30.31
2018-09-15T11:56:43.637Z,30.47
2018-09-15T11:57:43.574Z,30.83
2018-09-15T11:58:43.509Z,31.20
2018-09-15T11:59:43.446Z,31.43
2018-09-15T12:00:43.390Z,31.40
2018-09-15T12:01:43.328Z,31.87
2018-09-15T12:02:43.266Z,31.84
2018-09-15T12:03:43.202Z,31.77
2018-09-15T12:04:43.142Z,31.87
2018-09-15T12:05:43.081Z,31.99
2018-09-15T12:06:43.023Z,31.55
2018-09-15T12:07:42.962Z,30.84
2018-09-15T12:08:42.901Z,30.84
2018-09-15T12:09:42.841Z,30.65
2018-09-15T12:10:42.784Z,30.02
2018-09-15T12:11:42.724Z,29.35
2018-09-15T12:12:42.668Z,28.78
2018-09-15T12:13:42.601Z,29.50
2018-09-15T12:14:42.543Z,30.08
2018-09-15T12:15:42.480Z,30.83
2018-09-15T12:16:42.421Z,31.33
2018-09-15T12:17:42.362Z,32.03
2018-09-15T12:18:42.298Z,32.29
2018-09-15T12:19:42.241Z,32.48
2018-09-15T12:20:42.182Z,32.90
2018-09-15T12:21:42.125Z,33.55
2018-09-15T12:22:42.060Z,33.92
2018-09-15T12:23:42.005Z,34.08
2018-09-15T12:24:41.944Z,34.01
2018-09-15T12:25:41.885Z,33.61
2018-09-15T12:26:41.827Z,33.47
2018-09-15T12:27:41.773Z,33.52
2018-09-15T12:28:41.710Z,33.42
2018-09-15T12:29:41.648Z,33.07
2018-09-15T12:30:41.590Z,32.08
2018-09-15T12:31:41.532Z,31.42
2018-09-15T12:32:41.475Z,30.65
2018-09-15T12:33:41.416Z,30.08
2018-09-15T12:34:41.357Z,29.49
2018-09-15T12:35:41.295Z,29.07
2018-09-15T12:36:41.239Z,29.50
2018-09-15T12:37:41.175Z,29.60
2018-09-15T12:38:41.115Z,28.66
2018-09-15T12:39:41.059Z,28.07
2018-09-15T12:40:40.993Z,27.80
2018-09-15T12:41:40.937Z,28.51
2018-09-15T12:42:40.872Z,27.86
2018-09-15T12:43:40.809Z,28.69
2018-09-15T12:44:40.747Z,29.01
2018-09-15T12:45:40.687Z,29.27
2018-09-15T12:46:40.626Z,28.56
2018-09-15T12:47:40.566Z,28.26
2018-09-15T12:48:40.504Z,28.57
2018-09-15T12:49:40.440Z,29.20
2018-09-15T12:50:40.375Z,29.90
2018-09-15T12:51:40.318Z,30.50